Max Planck — ELZY8 — position and weather

sailwx.info

Track history (hours):
 
Tides and Currents Weather Stations Pressure Air Temp Water Temp Dewpoint Dewpoint Depression Visibility Wind Speed Wind Dir Waves Ship Positions

Max Planck

Last reported at 2015-Jul-29 08:29 UTC. Time now 2015-Jul-29 09:33 UTC.
Position N 31°01' E 122°39'.

Length 99.9 m; beam 16.2 m; draft 6.8 m.

Type: Tanker. MMSI: 636091773.

Date/timePositionNaut miles runAvg speedWind from/ knotsBaromVisibWave heightAir tempDewpointWater temp
2015-Jul-29 08:29N 31°01' E 122°39'0 0.0
2015-Jul-29 07:31N 31°01' E 122°39'0 0.1
2015-Jul-29 06:33N 31°01' E 122°39'0 0.0
2015-Jul-29 01:06N 31°02' E 122°39'0 0.0
2015-Jul-29 00:20N 31°02' E 122°39'0 0.1
2015-Jul-28 23:32N 31°02' E 122°39'0 0.1
2015-Jul-28 22:32N 31°02' E 122°39'0 0.1
2015-Jul-28 21:23N 31°01' E 122°39'0 0.0
2015-Jul-28 20:11N 31°01' E 122°39'0 0.0
2015-Jul-28 19:32N 31°01' E 122°39'0 0.0
2015-Jul-28 18:26N 31°01' E 122°39'0 0.0
2015-Jul-28 17:29N 31°01' E 122°39'0 0.0
2015-Jul-28 16:32N 31°01' E 122°39'0 0.0
2015-Jul-28 15:26N 31°02' E 122°39'0 0.0
2015-Jul-28 14:29N 31°02' E 122°39'0 0.1
2015-Jul-28 13:29N 31°02' E 122°39'0 0.0
2015-Jul-28 12:17N 31°02' E 122°39'0 0.1
2015-Jul-28 11:13N 31°01' E 122°39'0 0.1
2015-Jul-28 10:31N 31°01' E 122°39'0 0.1
2015-Jul-28 09:25N 31°01' E 122°39'0 0.0
2015-Jul-28 08:31N 31°01' E 122°39'0 0.0
2015-Jul-28 07:33N 31°01' E 122°39'0 0.1
2015-Jul-28 06:32N 31°01' E 122°39'0 0.0
2015-Jul-28 02:33N 31°01' E 122°39'3 2.4
2015-Jul-28 01:11N 31°01' E 122°35'0 0.1
2015-Jul-28 00:33N 31°01' E 122°35'0 0.0
2015-Jul-27 23:30N 31°01' E 122°35'0 0.1
2015-Jul-27 22:33N 31°01' E 122°35'0 0.0
2015-Jul-27 21:33N 31°01' E 122°35'0 0.1
2015-Jul-27 20:33N 31°01' E 122°35'0 0.1
2015-Jul-27 19:33N 31°01' E 122°35'0 0.0
2015-Jul-27 17:15N 31°01' E 122°35'0 0.0
2015-Jul-27 13:33N 31°01' E 122°35'0 0.1
2015-Jul-27 12:33N 31°01' E 122°35'0 0.0
2015-Jul-27 11:29N 31°01' E 122°35'0 0.1
2015-Jul-27 10:29N 31°01' E 122°35'0 0.0
2015-Jul-27 09:31N 31°01' E 122°35'0 0.0
2015-Jul-27 07:31N 31°01' E 122°35'0 0.0
2015-Jul-27 06:31N 31°01' E 122°35'0 0.1
2015-Jul-27 05:33N 31°01' E 122°35'0 0.0
2015-Jul-27 04:30N 31°01' E 122°35'0 0.0
2015-Jul-27 03:30N 31°01' E 122°35'0 0.0
2015-Jul-27 01:20N 31°01' E 122°35'0 0.0
2015-Jul-27 00:11N 31°01' E 122°35'0 0.1
2015-Jul-26 23:23N 31°01' E 122°35'0 0.4
2015-Jul-26 22:33N 31°01' E 122°35'9 8.6
2015-Jul-26 21:33N 31°01' E 122°45'7 7.2
2015-Jul-26 20:33N 31°02' E 122°54'7 7.1
2015-Jul-26 19:33N 31°02' E 123°02'7 6.8
2015-Jul-26 18:33N 31°02' E 123°10'7 7.0
2015-Jul-26 17:33N 31°03' E 123°18'7 6.8
2015-Jul-26 16:33N 31°04' E 123°26'7 6.6
2015-Jul-26 15:33N 31°05' E 123°34'14 6.8
2015-Jul-26 13:33N 31°08' E 123°49'6 6.2
2015-Jul-26 12:33N 31°09' E 123°56'6 6.5
2015-Jul-26 11:33N 31°10' E 124°03'7 6.4
2015-Jul-26 10:32N 31°12' E 124°11'  
2015-Jul-22 10:30N 34°54' E 139°23'8 8.8
2015-Jul-22 09:32N 34°58' E 139°32'1010.4
2015-Jul-22 08:33N 35°05' E 139°42'1010.1
2015-Jul-22 07:33N 35°14' E 139°46'10 9.8
2015-Jul-22 06:33N 35°23' E 139°43'8 7.7
2015-Jul-22 05:34N 35°30' E 139°47'1 1.1
2015-Jul-22 04:33N 35°31' E 139°46'0 0.0
2015-Jul-22 03:33N 35°31' E 139°46'0 0.0
2015-Jul-22 02:30N 35°31' E 139°46'0 0.0
2015-Jul-22 01:27N 35°31' E 139°46'0 0.0
2015-Jul-22 00:21N 35°31' E 139°46'0 0.0
2015-Jul-21 23:18N 35°31' E 139°46'0 0.0
2015-Jul-21 21:18N 35°31' E 139°46'0 0.0
2015-Jul-21 20:33N 35°31' E 139°46'0 0.0
2015-Jul-21 19:21N 35°31' E 139°46'0 0.0
2015-Jul-21 18:30N 35°31' E 139°46'0 0.0
2015-Jul-21 17:30N 35°31' E 139°46'0 0.0
2015-Jul-21 16:24N 35°31' E 139°46'0 0.0
2015-Jul-21 15:21N 35°31' E 139°46'0 0.0
2015-Jul-21 14:33N 35°31' E 139°46'0 0.0
2015-Jul-21 13:30N 35°31' E 139°46'0 0.0
2015-Jul-21 12:33N 35°31' E 139°46'0 0.0
2015-Jul-21 11:33N 35°31' E 139°46'0 0.0
2015-Jul-21 10:27N 35°31' E 139°46'0 0.0
2015-Jul-21 09:30N 35°31' E 139°46'0 0.0
2015-Jul-21 08:33N 35°31' E 139°46'0 0.0
2015-Jul-21 07:31N 35°31' E 139°46'5 4.8
2015-Jul-21 06:33N 35°27' E 139°43'1 0.9
2015-Jul-21 05:31N 35°28' E 139°44'0 0.0
2015-Jul-21 04:31N 35°28' E 139°44'0 0.0
2015-Jul-21 03:31N 35°28' E 139°44'0 0.1
2015-Jul-21 02:31N 35°28' E 139°44'0 0.0
2015-Jul-21 01:31N 35°28' E 139°44'0 0.0
2015-Jul-21 00:31N 35°28' E 139°44'0 0.1
2015-Jul-20 23:31N 35°28' E 139°44'0 0.0
2015-Jul-20 22:31N 35°28' E 139°44'0 0.1
2015-Jul-20 21:31N 35°28' E 139°44'0 0.1
2015-Jul-20 20:31N 35°28' E 139°44'0 0.0
2015-Jul-20 19:31N 35°28' E 139°44'0 0.0
2015-Jul-20 18:31N 35°28' E 139°44'0 0.0
2015-Jul-20 17:31N 35°28' E 139°44'0 0.0
2015-Jul-20 16:31N 35°28' E 139°44'0 0.0
2015-Jul-20 15:31N 35°28' E 139°44'0 0.0
2015-Jul-20 14:31N 35°28' E 139°44'0 0.1
2015-Jul-20 13:31N 35°28' E 139°44'0 0.0
2015-Jul-20 12:31N 35°28' E 139°44'0 0.0
2015-Jul-20 11:31N 35°28' E 139°44'0 0.0
2015-Jul-20 10:31N 35°28' E 139°44'0 0.0
2015-Jul-20 09:31N 35°28' E 139°44'0 0.0
2015-Jul-20 08:31N 35°28' E 139°44'0 0.0
2015-Jul-20 07:31N 35°28' E 139°44'0 0.0
2015-Jul-20 06:31N 35°28' E 139°44'0 0.2
2015-Jul-20 05:34N 35°28' E 139°44'1010.3
2015-Jul-20 04:33N 35°17' E 139°45'1111.2
2015-Jul-20 03:33N 35°06' E 139°44'9 9.0
2015-Jul-20 02:33N 35°01' E 139°36'10 9.8
2015-Jul-20 01:33N 34°55' E 139°27'12111.0
2015-Jul-19 14:33N 33°49' E 137°23'  
Track history (hours):
 
Tides and Currents Weather Stations Pressure Air Temp Water Temp Dewpoint Dewpoint Depression Visibility Wind Speed Wind Dir Waves Ship Positions

Max Planck

Last reported at 2015-Jul-29 08:29 UTC. Time now 2015-Jul-29 09:33 UTC.
Position N 31°01' E 122°39'.

Length 99.9 m; beam 16.2 m; draft 6.8 m.

Type: Tanker. MMSI: 636091773.

Date/timePositionNaut miles runAvg speedWind from/ knotsBaromVisibWave heightAir tempDewpointWater temp
2015-Jul-29 08:29N 31°01' E 122°39'0 0.0
2015-Jul-29 07:31N 31°01' E 122°39'0 0.1
2015-Jul-29 06:33N 31°01' E 122°39'0 0.0
2015-Jul-29 01:06N 31°02' E 122°39'0 0.0
2015-Jul-29 00:20N 31°02' E 122°39'0 0.1
2015-Jul-28 23:32N 31°02' E 122°39'0 0.1
2015-Jul-28 22:32N 31°02' E 122°39'0 0.1
2015-Jul-28 21:23N 31°01' E 122°39'0 0.0
2015-Jul-28 20:11N 31°01' E 122°39'0 0.0
2015-Jul-28 19:32N 31°01' E 122°39'0 0.0
2015-Jul-28 18:26N 31°01' E 122°39'0 0.0
2015-Jul-28 17:29N 31°01' E 122°39'0 0.0
2015-Jul-28 16:32N 31°01' E 122°39'0 0.0
2015-Jul-28 15:26N 31°02' E 122°39'0 0.0
2015-Jul-28 14:29N 31°02' E 122°39'0 0.1
2015-Jul-28 13:29N 31°02' E 122°39'0 0.0
2015-Jul-28 12:17N 31°02' E 122°39'0 0.1
2015-Jul-28 11:13N 31°01' E 122°39'0 0.1
2015-Jul-28 10:31N 31°01' E 122°39'0 0.1
2015-Jul-28 09:25N 31°01' E 122°39'0 0.0
2015-Jul-28 08:31N 31°01' E 122°39'0 0.0
2015-Jul-28 07:33N 31°01' E 122°39'0 0.1
2015-Jul-28 06:32N 31°01' E 122°39'0 0.0
2015-Jul-28 02:33N 31°01' E 122°39'3 2.4
2015-Jul-28 01:11N 31°01' E 122°35'0 0.1
2015-Jul-28 00:33N 31°01' E 122°35'0 0.0
2015-Jul-27 23:30N 31°01' E 122°35'0 0.1
2015-Jul-27 22:33N 31°01' E 122°35'0 0.0
2015-Jul-27 21:33N 31°01' E 122°35'0 0.1
2015-Jul-27 20:33N 31°01' E 122°35'0 0.1
2015-Jul-27 19:33N 31°01' E 122°35'0 0.0
2015-Jul-27 17:15N 31°01' E 122°35'0 0.0
2015-Jul-27 13:33N 31°01' E 122°35'0 0.1
2015-Jul-27 12:33N 31°01' E 122°35'0 0.0
2015-Jul-27 11:29N 31°01' E 122°35'0 0.1
2015-Jul-27 10:29N 31°01' E 122°35'0 0.0
2015-Jul-27 09:31N 31°01' E 122°35'0 0.0
2015-Jul-27 07:31N 31°01' E 122°35'0 0.0
2015-Jul-27 06:31N 31°01' E 122°35'0 0.1
2015-Jul-27 05:33N 31°01' E 122°35'0 0.0
2015-Jul-27 04:30N 31°01' E 122°35'0 0.0
2015-Jul-27 03:30N 31°01' E 122°35'0 0.0
2015-Jul-27 01:20N 31°01' E 122°35'0 0.0
2015-Jul-27 00:11N 31°01' E 122°35'0 0.1
2015-Jul-26 23:23N 31°01' E 122°35'0 0.4
2015-Jul-26 22:33N 31°01' E 122°35'9 8.6
2015-Jul-26 21:33N 31°01' E 122°45'7 7.2
2015-Jul-26 20:33N 31°02' E 122°54'7 7.1
2015-Jul-26 19:33N 31°02' E 123°02'7 6.8
2015-Jul-26 18:33N 31°02' E 123°10'7 7.0
2015-Jul-26 17:33N 31°03' E 123°18'7 6.8
2015-Jul-26 16:33N 31°04' E 123°26'7 6.6
2015-Jul-26 15:33N 31°05' E 123°34'14 6.8
2015-Jul-26 13:33N 31°08' E 123°49'6 6.2
2015-Jul-26 12:33N 31°09' E 123°56'6 6.5
2015-Jul-26 11:33N 31°10' E 124°03'7 6.4
2015-Jul-26 10:32N 31°12' E 124°11'  
2015-Jul-22 10:30N 34°54' E 139°23'8 8.8
2015-Jul-22 09:32N 34°58' E 139°32'1010.4
2015-Jul-22 08:33N 35°05' E 139°42'1010.1
2015-Jul-22 07:33N 35°14' E 139°46'10 9.8
2015-Jul-22 06:33N 35°23' E 139°43'8 7.7
2015-Jul-22 05:34N 35°30' E 139°47'1 1.1
2015-Jul-22 04:33N 35°31' E 139°46'0 0.0
2015-Jul-22 03:33N 35°31' E 139°46'0 0.0
2015-Jul-22 02:30N 35°31' E 139°46'0 0.0
2015-Jul-22 01:27N 35°31' E 139°46'0 0.0
2015-Jul-22 00:21N 35°31' E 139°46'0 0.0
2015-Jul-21 23:18N 35°31' E 139°46'0 0.0
2015-Jul-21 21:18N 35°31' E 139°46'0 0.0
2015-Jul-21 20:33N 35°31' E 139°46'0 0.0
2015-Jul-21 19:21N 35°31' E 139°46'0 0.0
2015-Jul-21 18:30N 35°31' E 139°46'0 0.0
2015-Jul-21 17:30N 35°31' E 139°46'0 0.0
2015-Jul-21 16:24N 35°31' E 139°46'0 0.0
2015-Jul-21 15:21N 35°31' E 139°46'0 0.0
2015-Jul-21 14:33N 35°31' E 139°46'0 0.0
2015-Jul-21 13:30N 35°31' E 139°46'0 0.0
2015-Jul-21 12:33N 35°31' E 139°46'0 0.0
2015-Jul-21 11:33N 35°31' E 139°46'0 0.0
2015-Jul-21 10:27N 35°31' E 139°46'0 0.0
2015-Jul-21 09:30N 35°31' E 139°46'0 0.0
2015-Jul-21 08:33N 35°31' E 139°46'0 0.0
2015-Jul-21 07:31N 35°31' E 139°46'5 4.8
2015-Jul-21 06:33N 35°27' E 139°43'1 0.9
2015-Jul-21 05:31N 35°28' E 139°44'0 0.0
2015-Jul-21 04:31N 35°28' E 139°44'0 0.0
2015-Jul-21 03:31N 35°28' E 139°44'0 0.1
2015-Jul-21 02:31N 35°28' E 139°44'0 0.0
2015-Jul-21 01:31N 35°28' E 139°44'0 0.0
2015-Jul-21 00:31N 35°28' E 139°44'0 0.1
2015-Jul-20 23:31N 35°28' E 139°44'0 0.0
2015-Jul-20 22:31N 35°28' E 139°44'0 0.1
2015-Jul-20 21:31N 35°28' E 139°44'0 0.1
2015-Jul-20 20:31N 35°28' E 139°44'0 0.0
2015-Jul-20 19:31N 35°28' E 139°44'0 0.0
2015-Jul-20 18:31N 35°28' E 139°44'0 0.0
2015-Jul-20 17:31N 35°28' E 139°44'0 0.0
2015-Jul-20 16:31N 35°28' E 139°44'0 0.0
2015-Jul-20 15:31N 35°28' E 139°44'0 0.0
2015-Jul-20 14:31N 35°28' E 139°44'0 0.1
2015-Jul-20 13:31N 35°28' E 139°44'0 0.0
2015-Jul-20 12:31N 35°28' E 139°44'0 0.0
2015-Jul-20 11:31N 35°28' E 139°44'0 0.0
2015-Jul-20 10:31N 35°28' E 139°44'0 0.0
2015-Jul-20 09:31N 35°28' E 139°44'0 0.0
2015-Jul-20 08:31N 35°28' E 139°44'0 0.0
2015-Jul-20 07:31N 35°28' E 139°44'0 0.0
2015-Jul-20 06:31N 35°28' E 139°44'0 0.2
2015-Jul-20 05:34N 35°28' E 139°44'1010.3
2015-Jul-20 04:33N 35°17' E 139°45'1111.2
2015-Jul-20 03:33N 35°06' E 139°44'9 9.0
2015-Jul-20 02:33N 35°01' E 139°36'10 9.8
2015-Jul-20 01:33N 34°55' E 139°27'12111.0
2015-Jul-19 14:33N 33°49' E 137°23'  

Dump ship's entire track history